Time;durP1;ratioP1;P1;durP2;ratioP2;P2;SDS_P1;SDS_P2;PMS_P1;PMS_P2;Temp;Humidity;BMP_temperature;BMP_pressure;BME280_temperature;BME280_humidity;BME280_pressure;Samples;Min_cycle;Max_cycle;Signal;HPM_P1;HPM_P2
2022/12/03 00:01:47;;;;;;;;;;;7.50;61.30;;;;;;4995518;28;19932;-89
2022/12/03 00:04:13;;;;;;;;;;;7.50;61.30;;;;;;5002018;28;19914;-88
2022/12/03 00:06:38;;;;;;;;;;;7.50;61.30;;;;;;5003855;28;19917;-87
2022/12/03 00:09:04;;;;;;;;;;;7.50;61.10;;;;;;5008195;28;20393;-86
2022/12/03 00:11:37;;;;;;;;;;;7.50;61.00;;;;;;4989805;28;19920;-86
2022/12/03 00:14:02;;;;;;;;;;;7.50;61.20;;;;;;4993670;28;19933;-89
2022/12/03 00:16:30;;;;;;;;;;;7.60;61.10;;;;;;4994856;28;19918;-89
2022/12/03 00:19:06;;;;;;;;;;;7.50;61.00;;;;;;5010355;28;20017;-88
2022/12/03 00:21:41;;;;;;;;;;;;;;;;;;;;;
2022/12/03 00:24:07;;;;;;;;;;;7.50;60.90;;;;;;5005328;28;20254;-89
2022/12/03 00:26:35;;;;;;;;;;;7.50;60.50;;;;;;4991280;28;20024;-87
2022/12/03 00:29:03;;;;;;;;;;;7.50;60.60;;;;;;4989122;28;19924;-87
2022/12/03 00:31:32;;;;;;;;;;;7.50;60.80;;;;;;5007549;28;20012;-88
2022/12/03 00:33:57;;;;;;;;;;;7.50;60.90;;;;;;4989884;28;19925;-88
2022/12/03 00:36:23;;;;;;;;;;;7.50;60.90;;;;;;5010310;28;19936;-88
2022/12/03 00:38:49;;;;;;;;;;;7.50;60.70;;;;;;5004255;28;20324;-89
2022/12/03 00:41:14;;;;;;;;;;;7.50;60.80;;;;;;5007544;28;19913;-89
2022/12/03 00:43:40;;;;;;;;;;;7.50;60.50;;;;;;4983818;28;19929;-87
2022/12/03 00:46:06;;;;;;;;;;;7.50;60.60;;;;;;4985151;28;20268;-89
2022/12/03 00:48:34;;;;;;;;;;;7.50;60.40;;;;;;4989499;28;19976;-88
2022/12/03 00:51:07;;;;;;;;;;;7.50;60.00;;;;;;5004188;28;19956;-87
2022/12/03 00:53:35;;;;;;;;;;;7.50;60.30;;;;;;5011275;28;20456;-90
2022/12/03 00:56:03;;;;;;;;;;;7.50;59.90;;;;;;4980896;28;20376;-88
2022/12/03 00:58:29;;;;;;;;;;;7.50;60.30;;;;;;5003173;28;19972;-88
2022/12/03 01:00:54;;;;;;;;;;;7.50;60.30;;;;;;4995251;28;19913;-88
2022/12/03 01:03:20;;;;;;;;;;;7.40;60.20;;;;;;4988474;28;20004;-88
2022/12/03 01:05:45;;;;;;;;;;;7.50;60.00;;;;;;4990172;28;19914;-87
2022/12/03 01:08:11;;;;;;;;;;;7.40;59.90;;;;;;4993198;28;19914;-88
2022/12/03 01:10:39;;;;;;;;;;;7.40;59.90;;;;;;4984157;28;19914;-89
2022/12/03 01:13:05;;;;;;;;;;;7.30;59.90;;;;;;4992219;28;20268;-88
2022/12/03 01:15:30;;;;;;;;;;;7.40;59.90;;;;;;4993530;28;19913;-89
2022/12/03 01:17:59;;;;;;;;;;;7.40;59.70;;;;;;4993414;28;20377;-89
2022/12/03 01:20:25;;;;;;;;;;;7.40;59.80;;;;;;4990520;28;19918;-89
2022/12/03 01:22:50;;;;;;;;;;;7.30;60.00;;;;;;4989075;28;19920;-89
2022/12/03 01:25:16;;;;;;;;;;;7.30;60.00;;;;;;4990366;28;19925;-89
2022/12/03 01:27:47;;;;;;;;;;;7.20;60.00;;;;;;4992505;28;20369;-89
2022/12/03 01:30:12;;;;;;;;;;;7.20;60.20;;;;;;5009793;28;19918;-88
2022/12/03 01:32:38;;;;;;;;;;;7.30;60.20;;;;;;5009662;28;19971;-87
2022/12/03 01:35:04;;;;;;;;;;;7.30;60.10;;;;;;4993545;28;19921;-89
2022/12/03 01:37:29;;;;;;;;;;;7.30;60.00;;;;;;4995113;28;19914;-88
2022/12/03 01:39:55;;;;;;;;;;;7.30;60.20;;;;;;4997454;28;20463;-88
2022/12/03 01:42:22;;;;;;;;;;;7.30;60.30;;;;;;4991338;28;20416;-87
2022/12/03 01:44:50;;;;;;;;;;;7.30;60.30;;;;;;4992489;28;19925;-87
2022/12/03 01:47:16;;;;;;;;;;;7.30;60.20;;;;;;4991805;28;19917;-87
2022/12/03 01:49:47;;;;;;;;;;;7.30;60.30;;;;;;4994322;28;19969;-88
2022/12/03 01:52:16;;;;;;;;;;;7.40;60.10;;;;;;4991867;28;19922;-88
2022/12/03 01:54:44;;;;;;;;;;;7.30;60.20;;;;;;4994993;28;20003;-88
2022/12/03 01:57:17;;;;;;;;;;;7.40;60.30;;;;;;4992118;28;19918;-88
2022/12/03 01:59:43;;;;;;;;;;;7.40;60.00;;;;;;5010177;28;19917;-88
2022/12/03 02:02:17;;;;;;;;;;;7.30;60.20;;;;;;5010990;28;19917;-88
2022/12/03 02:04:43;;;;;;;;;;;7.30;60.00;;;;;;5008179;28;19909;-89
2022/12/03 02:07:19;;;;;;;;;;;7.30;60.20;;;;;;4996731;28;19917;-88
2022/12/03 02:09:44;;;;;;;;;;;7.30;60.40;;;;;;5019362;28;20375;-89
2022/12/03 02:12:10;;;;;;;;;;;7.30;60.70;;;;;;5023817;28;20007;-88
2022/12/03 02:14:43;;;;;;;;;;;7.30;60.60;;;;;;4999262;28;19924;-88
2022/12/03 02:17:10;;;;;;;;;;;7.40;60.50;;;;;;4989278;28;19918;-89
2022/12/03 02:19:38;;;;;;;;;;;7.40;60.70;;;;;;5024171;28;19910;-88
2022/12/03 02:22:04;;;;;;;;;;;7.30;60.40;;;;;;4994093;28;20000;-87
2022/12/03 02:24:33;;;;;;;;;;;7.30;60.70;;;;;;4992264;28;19974;-85
2022/12/03 02:26:59;;;;;;;;;;;7.40;60.30;;;;;;5007883;28;19925;-86
2022/12/03 02:29:25;;;;;;;;;;;7.40;60.30;;;;;;5003972;28;19936;-89
2022/12/03 02:31:51;;;;;;;;;;;7.30;60.50;;;;;;4999781;28;19946;-87
2022/12/03 02:34:35;;;;;;;;;;;7.40;60.50;;;;;;4998449;28;19917;-87
2022/12/03 02:37:01;;;;;;;;;;;7.40;60.60;;;;;;4997252;28;19986;-87
2022/12/03 02:39:27;;;;;;;;;;;7.30;60.20;;;;;;5016391;28;20000;-87
2022/12/03 02:44:36;;;;;;;;;;;7.30;60.50;;;;;;5013457;28;19983;-85
2022/12/03 02:47:02;;;;;;;;;;;7.40;60.60;;;;;;4996461;28;19985;-88
2022/12/03 02:49:28;;;;;;;;;;;7.30;60.60;;;;;;5000084;28;19926;-88
2022/12/03 02:51:53;;;;;;;;;;;7.30;60.30;;;;;;5017108;28;20265;-87
2022/12/03 02:54:19;;;;;;;;;;;7.30;60.30;;;;;;5033960;28;19924;-86
2022/12/03 02:56:45;;;;;;;;;;;7.30;60.30;;;;;;5007363;28;20012;-88
2022/12/03 02:59:10;;;;;;;;;;;7.30;60.10;;;;;;5014597;28;20357;-87
2022/12/03 03:01:36;;;;;;;;;;;7.20;59.90;;;;;;5016825;28;20016;-86
2022/12/03 03:04:03;;;;;;;;;;;7.20;59.70;;;;;;5033753;28;19910;-87
2022/12/03 03:06:29;;;;;;;;;;;7.20;60.00;;;;;;5015779;28;19925;-86
2022/12/03 03:08:54;;;;;;;;;;;7.20;60.10;;;;;;5008589;28;20025;-87
2022/12/03 03:11:23;;;;;;;;;;;7.20;60.00;;;;;;4982874;28;20265;-88
2022/12/03 03:13:56;;;;;;;;;;;7.10;60.10;;;;;;4979429;28;20626;-87
2022/12/03 03:16:22;;;;;;;;;;;7.20;59.80;;;;;;5021181;28;19917;-86
2022/12/03 03:18:48;;;;;;;;;;;7.10;59.50;;;;;;5016711;28;19979;-86
2022/12/03 03:21:13;;;;;;;;;;;7.00;59.60;;;;;;5004835;28;19921;-86
2022/12/03 03:23:39;;;;;;;;;;;7.00;59.40;;;;;;5012390;28;19922;-87
2022/12/03 03:26:06;;;;;;;;;;;7.00;59.30;;;;;;4994830;28;19992;-87
2022/12/03 03:28:33;;;;;;;;;;;6.90;59.50;;;;;;4976451;28;20413;-86
2022/12/03 03:31:00;;;;;;;;;;;6.90;59.20;;;;;;5003536;28;20750;-87
2022/12/03 03:33:25;;;;;;;;;;;6.90;59.40;;;;;;5015287;28;19925;-87
2022/12/03 03:35:51;;;;;;;;;;;6.90;59.10;;;;;;5011235;28;19921;-88
2022/12/03 03:38:20;;;;;;;;;;;6.90;59.00;;;;;;5010881;28;20276;-86
2022/12/03 03:40:46;;;;;;;;;;;6.80;59.30;;;;;;4989078;28;20016;-87
2022/12/03 03:43:12;;;;;;;;;;;6.80;59.30;;;;;;4975660;28;19922;-87
2022/12/03 03:45:37;;;;;;;;;;;6.80;59.50;;;;;;5000419;28;19921;-87
2022/12/03 03:48:05;;;;;;;;;;;6.80;59.50;;;;;;5001795;28;20347;-87
2022/12/03 03:50:31;;;;;;;;;;;6.80;59.50;;;;;;5015228;28;19924;-88
2022/12/03 03:52:58;;;;;;;;;;;6.80;59.70;;;;;;5011846;28;19913;-88
2022/12/03 03:55:24;;;;;;;;;;;6.80;59.60;;;;;;4995126;28;19925;-87
2022/12/03 03:57:49;;;;;;;;;;;6.80;59.60;;;;;;5012566;28;19968;-87
2022/12/03 04:00:15;;;;;;;;;;;6.80;59.60;;;;;;5010157;28;19917;-87
2022/12/03 04:02:41;;;;;;;;;;;6.80;59.50;;;;;;5014686;28;20008;-87
2022/12/03 04:05:06;;;;;;;;;;;6.80;59.70;;;;;;4997744;28;19917;-88
2022/12/03 04:07:32;;;;;;;;;;;6.90;59.60;;;;;;4995104;28;19959;-88
2022/12/03 04:09:58;;;;;;;;;;;6.90;59.30;;;;;;4998316;28;19921;-88
2022/12/03 04:15:08;;;;;;;;;;;6.80;59.40;;;;;;5005292;28;20432;-86
2022/12/03 04:17:33;;;;;;;;;;;6.80;59.70;;;;;;5011149;28;19922;-88
2022/12/03 04:20:02;;;;;;;;;;;6.80;59.50;;;;;;4987402;28;20327;-87
2022/12/03 04:22:39;;;;;;;;;;;6.80;59.50;;;;;;5014065;28;20277;-87
2022/12/03 04:30:34;;;;;;;;;;;6.80;59.80;;;;;;5010023;28;19924;-87
2022/12/03 04:35:44;;;;;;;;;;;6.80;59.20;;;;;;5031707;28;20022;-86
2022/12/03 04:38:10;;;;;;;;;;;6.70;59.20;;;;;;5032558;28;20308;-87
2022/12/03 04:43:20;;;;;;;;;;;6.70;59.10;;;;;;5000560;28;19941;-87
2022/12/03 04:45:45;;;;;;;;;;;6.70;59.30;;;;;;4991218;28;19915;-87
2022/12/03 04:48:11;;;;;;;;;;;6.70;59.10;;;;;;4989368;28;20285;-87
2022/12/03 04:50:36;;;;;;;;;;;6.80;59.00;;;;;;4992235;28;20439;-87
2022/12/03 04:53:02;;;;;;;;;;;6.80;58.80;;;;;;5001238;28;19941;-87
2022/12/03 04:55:28;;;;;;;;;;;6.80;59.00;;;;;;5010395;28;19975;-87
2022/12/03 04:57:56;;;;;;;;;;;6.70;58.80;;;;;;5004550;28;19920;-87
2022/12/03 05:00:21;;;;;;;;;;;6.70;58.70;;;;;;5024950;28;20306;-88
2022/12/03 05:02:47;;;;;;;;;;;6.70;58.50;;;;;;5000347;28;19917;-87
2022/12/03 05:05:13;;;;;;;;;;;6.80;58.40;;;;;;5031445;28;19932;-87
2022/12/03 05:07:38;;;;;;;;;;;6.80;58.00;;;;;;4997954;28;20499;-87
2022/12/03 05:10:12;;;;;;;;;;;6.80;58.50;;;;;;5013289;28;19909;-87
2022/12/03 05:12:37;;;;;;;;;;;6.80;58.50;;;;;;5007975;28;19929;-86
2022/12/03 05:15:03;;;;;;;;;;;6.80;58.50;;;;;;4993955;28;19929;-87
2022/12/03 05:17:29;;;;;;;;;;;6.80;58.20;;;;;;5010816;28;20011;-87
2022/12/03 05:22:39;;;;;;;;;;;6.80;58.30;;;;;;5011609;28;19944;-87
2022/12/03 05:25:05;;;;;;;;;;;6.80;58.30;;;;;;4993949;28;19913;-87
2022/12/03 05:27:30;;;;;;;;;;;6.80;58.40;;;;;;5008083;28;20347;-87
2022/12/03 05:29:56;;;;;;;;;;;6.80;58.20;;;;;;5013248;28;19963;-87
2022/12/03 05:32:21;;;;;;;;;;;6.80;58.20;;;;;;5002629;28;20313;-87
2022/12/03 05:34:47;;;;;;;;;;;6.80;58.30;;;;;;5008924;28;19975;-87
2022/12/03 05:37:14;;;;;;;;;;;6.80;58.30;;;;;;5032049;28;19920;-87
2022/12/03 05:39:40;;;;;;;;;;;6.80;58.00;;;;;;5031006;28;19917;-88
2022/12/03 05:44:50;;;;;;;;;;;6.80;58.00;;;;;;5011440;28;19964;-87
2022/12/03 05:47:15;;;;;;;;;;;6.70;58.20;;;;;;4993317;28;19961;-88
2022/12/03 05:49:41;;;;;;;;;;;6.70;57.70;;;;;;4987784;28;20339;-88
2022/12/03 05:52:06;;;;;;;;;;;6.70;58.00;;;;;;5029053;28;20003;-87
2022/12/03 05:54:32;;;;;;;;;;;6.70;57.90;;;;;;5030666;28;19963;-87
2022/12/03 05:56:57;;;;;;;;;;;6.70;57.90;;;;;;5000626;28;20580;-88
2022/12/03 05:59:23;;;;;;;;;;;6.70;58.10;;;;;;4988714;28;19914;-86
2022/12/03 06:01:51;;;;;;;;;;;6.70;57.90;;;;;;4974644;28;19981;-87
2022/12/03 06:04:16;;;;;;;;;;;6.70;57.90;;;;;;5013693;28;19917;-87
2022/12/03 06:06:42;;;;;;;;;;;6.70;57.80;;;;;;5001291;28;19917;-87
2022/12/03 06:09:07;;;;;;;;;;;6.70;57.80;;;;;;5001365;28;19921;-87
2022/12/03 06:11:34;;;;;;;;;;;6.70;57.70;;;;;;5011107;28;19937;-87
2022/12/03 06:13:59;;;;;;;;;;;6.70;57.60;;;;;;5007666;28;19973;-87
2022/12/03 06:16:25;;;;;;;;;;;6.70;57.50;;;;;;4974045;28;20369;-88
2022/12/03 06:18:50;;;;;;;;;;;6.70;57.40;;;;;;4998971;28;20016;-87
2022/12/03 06:21:16;;;;;;;;;;;6.70;57.70;;;;;;5010520;28;19914;-88
2022/12/03 06:23:44;;;;;;;;;;;6.70;58.00;;;;;;4987846;28;19917;-88
2022/12/03 06:26:13;;;;;;;;;;;6.70;58.20;;;;;;4988716;28;19921;-88
2022/12/03 06:28:38;;;;;;;;;;;6.70;58.00;;;;;;4991434;28;20305;-88
2022/12/03 06:31:05;;;;;;;;;;;6.70;58.10;;;;;;4991762;28;19961;-88
2022/12/03 06:33:31;;;;;;;;;;;6.70;58.00;;;;;;4981838;28;20373;-88
2022/12/03 06:35:57;;;;;;;;;;;6.70;58.30;;;;;;5017799;28;19924;-88
2022/12/03 06:38:22;;;;;;;;;;;6.80;58.20;;;;;;4988967;28;20024;-88
2022/12/03 06:40:48;;;;;;;;;;;6.80;58.20;;;;;;4981497;28;19918;-87
2022/12/03 06:43:13;;;;;;;;;;;6.80;58.10;;;;;;4982235;28;20313;-87
2022/12/03 06:45:39;;;;;;;;;;;6.80;58.10;;;;;;5000425;28;19910;-88
2022/12/03 06:48:05;;;;;;;;;;;6.80;58.00;;;;;;4984080;28;20061;-88
2022/12/03 06:50:30;;;;;;;;;;;6.80;58.10;;;;;;4999500;28;19918;-88
2022/12/03 06:52:56;;;;;;;;;;;6.80;57.80;;;;;;4985910;28;19963;-88
2022/12/03 06:55:21;;;;;;;;;;;6.80;57.90;;;;;;4977958;28;19937;-88
2022/12/03 06:57:47;;;;;;;;;;;6.80;57.80;;;;;;5022349;28;19909;-87
2022/12/03 07:00:13;;;;;;;;;;;6.70;57.40;;;;;;5028159;28;19921;-87
2022/12/03 07:02:38;;;;;;;;;;;6.70;57.30;;;;;;5013765;28;19963;-88
2022/12/03 07:05:04;;;;;;;;;;;6.70;57.40;;;;;;5014290;28;20419;-87
2022/12/03 07:07:32;;;;;;;;;;;6.70;57.60;;;;;;5009680;28;19910;-87
2022/12/03 07:09:57;;;;;;;;;;;6.70;57.40;;;;;;4997292;28;20027;-89
2022/12/03 07:12:23;;;;;;;;;;;6.70;57.40;;;;;;5002213;28;20269;-87
2022/12/03 07:14:49;;;;;;;;;;;6.70;57.50;;;;;;5009956;28;19926;-87
2022/12/03 07:17:14;;;;;;;;;;;6.70;57.70;;;;;;5011018;28;20348;-87
2022/12/03 07:19:40;;;;;;;;;;;6.70;57.60;;;;;;5004549;28;20316;-86
2022/12/03 07:22:05;;;;;;;;;;;6.70;57.60;;;;;;5013485;28;20003;-87
2022/12/03 07:24:31;;;;;;;;;;;6.70;57.80;;;;;;5014934;28;19967;-87
2022/12/03 07:26:57;;;;;;;;;;;6.70;57.80;;;;;;5015418;28;19909;-87
2022/12/03 07:29:22;;;;;;;;;;;6.70;57.70;;;;;;4998182;28;19925;-87
2022/12/03 07:31:48;;;;;;;;;;;6.70;57.80;;;;;;4995531;28;19918;-88
2022/12/03 07:34:14;;;;;;;;;;;6.70;57.80;;;;;;5021705;28;19933;-87
2022/12/03 07:36:40;;;;;;;;;;;6.80;57.60;;;;;;4999484;28;19909;-87
2022/12/03 07:39:05;;;;;;;;;;;6.70;57.80;;;;;;4999485;28;20019;-88
2022/12/03 07:41:33;;;;;;;;;;;6.80;57.90;;;;;;5016291;28;20360;-87
2022/12/03 07:43:59;;;;;;;;;;;6.80;58.00;;;;;;4996365;28;19925;-88
2022/12/03 07:46:24;;;;;;;;;;;6.80;57.90;;;;;;4990067;28;20387;-87
2022/12/03 07:48:50;;;;;;;;;;;6.80;58.00;;;;;;5017690;28;19917;-87
2022/12/03 07:51:15;;;;;;;;;;;6.80;58.00;;;;;;4996129;28;19964;-88
2022/12/03 07:53:41;;;;;;;;;;;6.80;58.10;;;;;;4994067;28;19922;-87
2022/12/03 07:56:07;;;;;;;;;;;6.80;58.20;;;;;;4995671;28;19910;-88
2022/12/03 07:58:33;;;;;;;;;;;6.80;58.10;;;;;;4995480;28;20759;-87
2022/12/03 08:00:59;;;;;;;;;;;6.80;57.90;;;;;;5015585;28;19913;-87
2022/12/03 08:03:27;;;;;;;;;;;6.80;57.80;;;;;;4993610;28;20436;-88
2022/12/03 08:05:53;;;;;;;;;;;6.70;57.80;;;;;;4993757;28;19913;-87
2022/12/03 08:08:19;;;;;;;;;;;6.70;57.90;;;;;;4993368;28;19933;-87
2022/12/03 08:10:44;;;;;;;;;;;6.60;57.90;;;;;;4994178;28;19909;-87
2022/12/03 08:13:12;;;;;;;;;;;6.60;58.00;;;;;;4987792;28;19913;-87
2022/12/03 08:15:40;;;;;;;;;;;6.60;58.00;;;;;;5004904;28;19945;-87
2022/12/03 08:18:11;;;;;;;;;;;6.60;58.10;;;;;;5006555;28;19919;-88
2022/12/03 08:20:37;;;;;;;;;;;6.60;58.10;;;;;;4997009;28;19945;-87
2022/12/03 08:23:08;;;;;;;;;;;6.70;58.10;;;;;;4989164;28;20416;-88
2022/12/03 08:25:34;;;;;;;;;;;6.60;58.00;;;;;;4990351;28;20052;-87
2022/12/03 08:28:20;;;;;;;;;;;6.60;57.90;;;;;;4993996;28;19921;-87
2022/12/03 08:30:57;;;;;;;;;;;6.60;58.10;;;;;;4993228;28;19917;-88
2022/12/03 08:33:23;;;;;;;;;;;6.70;57.80;;;;;;4993289;28;19941;-89
2022/12/03 08:35:51;;;;;;;;;;;6.70;57.90;;;;;;4990542;28;19917;-89
2022/12/03 08:38:18;;;;;;;;;;;6.70;58.10;;;;;;4992269;28;19910;-88
2022/12/03 08:40:44;;;;;;;;;;;6.70;58.30;;;;;;4999500;28;19918;-87
2022/12/03 08:43:25;;;;;;;;;;;6.70;58.10;;;;;;4982762;28;19914;-88
2022/12/03 08:45:51;;;;;;;;;;;6.80;58.10;;;;;;5001142;28;19924;-89
2022/12/03 08:48:17;;;;;;;;;;;6.80;57.90;;;;;;4996568;28;19991;-88
2022/12/03 08:50:43;;;;;;;;;;;6.80;57.80;;;;;;5001453;28;19913;-88
2022/12/03 08:53:12;;;;;;;;;;;6.80;57.90;;;;;;4999735;28;20004;-88
2022/12/03 08:55:43;;;;;;;;;;;6.80;57.40;;;;;;5000490;28;20016;-87
2022/12/03 08:58:37;;;;;;;;;;;6.80;57.40;;;;;;4973042;28;20199;-87
2022/12/03 09:01:09;;;;;;;;;;;6.80;57.50;;;;;;5005009;28;20307;-87
2022/12/03 09:03:35;;;;;;;;;;;6.90;57.70;;;;;;5001781;28;19922;-88
2022/12/03 09:06:00;;;;;;;;;;;6.80;57.30;;;;;;5008231;28;19913;-86
2022/12/03 09:08:26;;;;;;;;;;;6.90;57.10;;;;;;4978718;28;19963;-88
2022/12/03 09:10:52;;;;;;;;;;;6.90;57.20;;;;;;4997829;28;19913;-87
2022/12/03 09:13:18;;;;;;;;;;;6.90;57.00;;;;;;4985172;28;20428;-88
2022/12/03 09:15:43;;;;;;;;;;;6.90;56.70;;;;;;4994631;28;20392;-88
2022/12/03 09:18:09;;;;;;;;;;;6.90;56.80;;;;;;4983749;28;20388;-88
2022/12/03 09:20:37;;;;;;;;;;;6.90;56.80;;;;;;4987251;28;19917;-88
2022/12/03 09:23:03;;;;;;;;;;;7.00;57.20;;;;;;4981771;28;19914;-88
2022/12/03 09:25:28;;;;;;;;;;;6.90;57.10;;;;;;5000755;28;20000;-88
2022/12/03 09:27:54;;;;;;;;;;;7.00;57.10;;;;;;5004983;28;20281;-89
2022/12/03 09:30:20;;;;;;;;;;;7.10;57.50;;;;;;4984711;28;20016;-88
2022/12/03 09:32:48;;;;;;;;;;;7.10;57.00;;;;;;4990285;28;19921;-88
2022/12/03 09:35:13;;;;;;;;;;;7.10;57.30;;;;;;5000654;28;19952;-88
2022/12/03 09:37:39;;;;;;;;;;;7.10;57.30;;;;;;4993625;28;19943;-87
2022/12/03 09:40:05;;;;;;;;;;;7.20;57.10;;;;;;5011435;28;19981;-89
2022/12/03 09:42:30;;;;;;;;;;;7.20;57.00;;;;;;5002608;28;20379;-88
2022/12/03 09:44:56;;;;;;;;;;;7.20;56.90;;;;;;4981894;28;20005;-89
2022/12/03 09:47:21;;;;;;;;;;;7.20;56.80;;;;;;5007239;28;19917;-90
2022/12/03 09:49:47;;;;;;;;;;;7.20;56.90;;;;;;4984301;28;19921;-87
2022/12/03 09:52:19;;;;;;;;;;;7.30;56.80;;;;;;4983334;28;19923;-88
2022/12/03 09:54:44;;;;;;;;;;;7.20;56.70;;;;;;5004252;28;19977;-89
2022/12/03 09:57:13;;;;;;;;;;;7.30;56.80;;;;;;5006909;28;21361;-87
2022/12/03 09:59:39;;;;;;;;;;;7.40;56.90;;;;;;5007323;28;20016;-88
2022/12/03 10:02:27;;;;;;;;;;;7.40;56.90;;;;;;5005510;28;20012;-87
2022/12/03 10:04:54;;;;;;;;;;;7.40;56.50;;;;;;5001919;28;19926;-87
2022/12/03 10:07:19;;;;;;;;;;;7.50;56.30;;;;;;5004884;28;19917;-88
2022/12/03 10:09:45;;;;;;;;;;;7.40;56.30;;;;;;5006296;28;19932;-89
2022/12/03 10:12:12;;;;;;;;;;;7.50;56.30;;;;;;5002483;28;20451;-86
2022/12/03 10:14:37;;;;;;;;;;;7.50;56.30;;;;;;4993885;28;20439;-87
2022/12/03 10:17:03;;;;;;;;;;;7.60;56.50;;;;;;4987063;28;19964;-87
2022/12/03 10:19:30;;;;;;;;;;;7.50;56.40;;;;;;4988034;28;19925;-87
2022/12/03 10:21:56;;;;;;;;;;;7.70;56.40;;;;;;4989366;28;19921;-88
2022/12/03 10:24:29;;;;;;;;;;;7.70;56.20;;;;;;5006008;28;19979;-87
2022/12/03 10:26:56;;;;;;;;;;;7.70;56.20;;;;;;5005220;28;19925;-87
2022/12/03 10:29:23;;;;;;;;;;;7.70;56.00;;;;;;5007211;28;19924;-89
2022/12/03 10:31:55;;;;;;;;;;;7.80;55.80;;;;;;5004400;28;19972;-87
2022/12/03 10:34:23;;;;;;;;;;;7.80;55.60;;;;;;4986339;28;19976;-87
2022/12/03 10:37:07;;;;;;;;;;;7.80;55.60;;;;;;5007509;28;19925;-86
2022/12/03 10:39:50;;;;;;;;;;;7.90;55.00;;;;;;5008597;28;19968;-87
2022/12/03 10:42:17;;;;;;;;;;;7.90;54.70;;;;;;5006875;28;19924;-89
2022/12/03 10:44:43;;;;;;;;;;;7.90;54.90;;;;;;5008056;28;19988;-88
2022/12/03 10:47:10;;;;;;;;;;;7.90;55.00;;;;;;5003430;28;19922;-86
2022/12/03 10:49:35;;;;;;;;;;;8.00;54.30;;;;;;5007371;28;19921;-86
2022/12/03 10:52:01;;;;;;;;;;;8.00;54.30;;;;;;5007951;28;19913;-87
2022/12/03 10:54:28;;;;;;;;;;;8.10;54.50;;;;;;4990118;28;19952;-88
2022/12/03 10:56:54;;;;;;;;;;;8.10;54.70;;;;;;5006290;28;20284;-87
2022/12/03 10:59:40;;;;;;;;;;;8.20;54.70;;;;;;4987467;28;20972;-89
2022/12/03 11:02:32;;;;;;;;;;;8.20;54.90;;;;;;4993651;28;20584;-88
2022/12/03 11:04:57;;;;;;;;;;;8.20;54.10;;;;;;5005418;28;20440;-88
2022/12/03 11:07:26;;;;;;;;;;;8.10;54.00;;;;;;5008926;28;19961;-89
2022/12/03 11:09:57;;;;;;;;;;;8.10;53.90;;;;;;4993150;28;19925;-89
2022/12/03 11:12:24;;;;;;;;;;;8.10;54.00;;;;;;4992202;28;19968;-88
2022/12/03 11:14:53;;;;;;;;;;;8.20;54.50;;;;;;4988682;28;19936;-88
2022/12/03 11:17:37;;;;;;;;;;;8.20;54.00;;;;;;5011164;28;19918;-89
2022/12/03 11:20:03;;;;;;;;;;;8.20;54.10;;;;;;4993727;28;19968;-88
2022/12/03 11:22:41;;;;;;;;;;;8.10;54.00;;;;;;5007447;28;19921;-88
2022/12/03 11:25:32;;;;;;;;;;;8.10;54.30;;;;;;4986084;28;19921;-88
2022/12/03 11:28:13;;;;;;;;;;;8.10;54.60;;;;;;4991938;28;19924;-87
2022/12/03 11:30:47;;;;;;;;;;;8.20;54.50;;;;;;5008774;28;19925;-88
2022/12/03 11:33:20;;;;;;;;;;;8.10;54.10;;;;;;5010905;28;20521;-86
2022/12/03 11:36:01;;;;;;;;;;;8.10;53.80;;;;;;4989238;28;20408;-87
2022/12/03 11:38:36;;;;;;;;;;;8.00;53.80;;;;;;5005744;28;19929;-88
2022/12/03 11:41:12;;;;;;;;;;;8.00;54.40;;;;;;5005686;28;19924;-88
2022/12/03 11:43:54;;;;;;;;;;;8.00;54.00;;;;;;5004058;28;20329;-88
2022/12/03 11:46:24;;;;;;;;;;;8.00;53.80;;;;;;4989144;28;19922;-86
2022/12/03 11:48:51;;;;;;;;;;;7.90;53.90;;;;;;4989604;28;20684;-87
2022/12/03 11:51:18;;;;;;;;;;;7.90;53.70;;;;;;4989665;28;19961;-87
2022/12/03 11:53:44;;;;;;;;;;;7.90;53.80;;;;;;5006688;28;19985;-87
2022/12/03 11:56:14;;;;;;;;;;;7.90;54.40;;;;;;4990361;28;20404;-86
2022/12/03 11:58:42;;;;;;;;;;;7.90;54.00;;;;;;5006703;28;20424;-87
2022/12/03 12:01:07;;;;;;;;;;;7.90;54.00;;;;;;5007780;28;19929;-87
2022/12/03 12:03:35;;;;;;;;;;;8.00;54.00;;;;;;4991557;28;20217;-86
2022/12/03 12:06:18;;;;;;;;;;;8.00;53.90;;;;;;5009092;28;19949;-87
2022/12/03 12:08:49;;;;;;;;;;;8.00;54.10;;;;;;4990402;28;20005;-87
2022/12/03 12:11:18;;;;;;;;;;;8.00;54.00;;;;;;5007033;28;20020;-88
2022/12/03 12:13:44;;;;;;;;;;;8.10;53.80;;;;;;5007152;28;19925;-88
2022/12/03 12:16:10;;;;;;;;;;;8.00;53.80;;;;;;4986202;28;20451;-87
2022/12/03 12:18:41;;;;;;;;;;;8.00;53.80;;;;;;5007453;28;19940;-87
2022/12/03 12:21:25;;;;;;;;;;;8.00;53.40;;;;;;4989227;28;20016;-88
2022/12/03 12:23:51;;;;;;;;;;;7.90;53.10;;;;;;5009020;28;19914;-87
2022/12/03 12:26:17;;;;;;;;;;;7.90;53.50;;;;;;5005487;28;20273;-87
2022/12/03 12:28:42;;;;;;;;;;;7.90;54.10;;;;;;5008115;28;19918;-88
2022/12/03 12:31:09;;;;;;;;;;;8.00;53.80;;;;;;4992444;28;19922;-88
2022/12/03 12:33:34;;;;;;;;;;;7.90;53.60;;;;;;5007008;28;19923;-86
2022/12/03 12:36:04;;;;;;;;;;;7.90;53.20;;;;;;4990277;28;19926;-88
2022/12/03 12:38:29;;;;;;;;;;;7.80;53.40;;;;;;5002376;28;19922;-87
2022/12/03 12:40:55;;;;;;;;;;;7.80;53.40;;;;;;5007112;28;19929;-88
2022/12/03 12:43:23;;;;;;;;;;;7.80;53.70;;;;;;5007764;28;19917;-88
2022/12/03 12:45:49;;;;;;;;;;;7.80;53.90;;;;;;5012920;28;20434;-87
2022/12/03 12:48:19;;;;;;;;;;;7.70;53.90;;;;;;4995400;28;19969;-88
2022/12/03 12:50:45;;;;;;;;;;;7.70;53.40;;;;;;4989316;28;19922;-88
2022/12/03 12:53:15;;;;;;;;;;;7.60;53.30;;;;;;5000452;28;20556;-87
2022/12/03 12:55:41;;;;;;;;;;;7.60;53.30;;;;;;4989310;28;19936;-87
2022/12/03 12:58:10;;;;;;;;;;;7.50;53.20;;;;;;5006027;28;19918;-87
2022/12/03 13:00:36;;;;;;;;;;;7.50;53.50;;;;;;4988353;28;20530;-89
2022/12/03 13:03:03;;;;;;;;;;;7.40;53.60;;;;;;4988205;28;19965;-87
2022/12/03 13:05:39;;;;;;;;;;;7.40;53.80;;;;;;4992984;28;20008;-90
2022/12/03 13:08:14;;;;;;;;;;;7.30;54.00;;;;;;4991533;28;20349;-87
2022/12/03 13:10:40;;;;;;;;;;;7.40;54.20;;;;;;5010794;28;19940;-87
2022/12/03 13:13:23;;;;;;;;;;;7.40;54.40;;;;;;5007913;28;19929;-88
2022/12/03 13:15:58;;;;;;;;;;;7.30;54.40;;;;;;5013099;28;19933;-88
2022/12/03 13:18:33;;;;;;;;;;;7.40;54.80;;;;;;5022532;28;20004;-88
2022/12/03 13:21:05;;;;;;;;;;;7.40;54.90;;;;;;5004295;28;19961;-87
2022/12/03 13:23:34;;;;;;;;;;;7.40;54.60;;;;;;4986829;28;19918;-89
2022/12/03 13:26:01;;;;;;;;;;;7.40;54.80;;;;;;5002741;28;20012;-88
2022/12/03 13:28:28;;;;;;;;;;;7.50;55.10;;;;;;4989483;28;19917;-87
2022/12/03 13:30:54;;;;;;;;;;;7.50;55.00;;;;;;4986359;28;19925;-88
2022/12/03 13:36:26;;;;;;;;;;;7.50;54.80;;;;;;5006073;28;19948;-88
2022/12/03 13:38:52;;;;;;;;;;;7.50;54.60;;;;;;4985600;28;19917;-89
2022/12/03 13:44:15;;;;;;;;;;;7.50;54.90;;;;;;5002485;28;19932;-88
2022/12/03 13:46:52;;;;;;;;;;;;;;;;;;;;;
2022/12/03 13:49:20;;;;;;;;;;;7.50;54.60;;;;;;4982938;28;20098;-89
2022/12/03 13:51:47;;;;;;;;;;;7.50;54.80;;;;;;4985706;28;19921;-88
2022/12/03 13:54:20;;;;;;;;;;;7.50;54.70;;;;;;5004618;28;19932;-88
2022/12/03 13:56:46;;;;;;;;;;;7.50;54.70;;;;;;5007083;28;19927;-88
2022/12/03 13:59:12;;;;;;;;;;;7.50;54.40;;;;;;4989124;28;19913;-88
2022/12/03 14:01:37;;;;;;;;;;;7.50;54.20;;;;;;4988033;28;20333;-88
2022/12/03 14:04:03;;;;;;;;;;;7.40;54.40;;;;;;4988094;28;20008;-87
2022/12/03 14:06:29;;;;;;;;;;;7.50;54.30;;;;;;5006722;28;19975;-88
2022/12/03 14:08:55;;;;;;;;;;;7.50;54.60;;;;;;4992752;28;20085;-88
2022/12/03 14:14:05;;;;;;;;;;;7.50;54.30;;;;;;5010201;28;19932;-87
2022/12/03 14:16:30;;;;;;;;;;;7.40;54.70;;;;;;4994427;28;19921;-87
2022/12/03 14:18:56;;;;;;;;;;;7.50;54.60;;;;;;5012392;28;19913;-88
2022/12/03 14:21:22;;;;;;;;;;;7.50;54.80;;;;;;4993200;28;19933;-87
2022/12/03 14:23:47;;;;;;;;;;;7.50;55.00;;;;;;4993298;28;19983;-88
2022/12/03 14:26:14;;;;;;;;;;;7.50;54.90;;;;;;4993321;28;19926;-87
2022/12/03 14:28:42;;;;;;;;;;;7.50;55.10;;;;;;4994965;28;20646;-87
2022/12/03 14:31:08;;;;;;;;;;;7.50;55.00;;;;;;5013156;28;19921;-88
2022/12/03 14:33:34;;;;;;;;;;;7.50;55.20;;;;;;5011798;28;19921;-88
2022/12/03 14:35:59;;;;;;;;;;;7.50;55.20;;;;;;5010576;28;19925;-88
2022/12/03 14:38:25;;;;;;;;;;;7.40;55.00;;;;;;4992223;28;19917;-88
2022/12/03 14:40:50;;;;;;;;;;;7.40;54.80;;;;;;4992814;28;20050;-87
2022/12/03 14:43:16;;;;;;;;;;;7.40;54.60;;;;;;5009259;28;20284;-87
2022/12/03 14:45:41;;;;;;;;;;;7.30;54.70;;;;;;5010052;28;19932;-89
2022/12/03 14:48:07;;;;;;;;;;;7.30;54.80;;;;;;5010549;28;19913;-87
2022/12/03 14:50:33;;;;;;;;;;;7.30;54.70;;;;;;5005896;28;19922;-89
2022/12/03 14:52:58;;;;;;;;;;;7.30;55.00;;;;;;5007770;28;20356;-88
2022/12/03 14:55:24;;;;;;;;;;;7.30;55.10;;;;;;4989871;28;19961;-88
2022/12/03 14:57:49;;;;;;;;;;;7.20;54.80;;;;;;5004837;28;19977;-89
2022/12/03 15:00:15;;;;;;;;;;;7.20;54.70;;;;;;4991210;28;20431;-88
2022/12/03 15:02:41;;;;;;;;;;;7.20;54.80;;;;;;4996760;28;20032;-88
2022/12/03 15:05:06;;;;;;;;;;;7.20;54.80;;;;;;4994051;28;19941;-87